createdAt,value
2022-12-09T00:00:18.454Z,22
2022-12-09T00:01:20.984Z,22
2022-12-09T00:02:23.941Z,22
2022-12-09T00:03:27.903Z,22.1
2022-12-09T00:04:31.640Z,21.8
2022-12-09T00:05:35.268Z,22
2022-12-09T00:06:37.479Z,22.1
2022-12-09T00:07:40.064Z,22
2022-12-09T00:08:43.676Z,22
2022-12-09T00:09:46.817Z,22
2022-12-09T00:10:49.561Z,22.2
2022-12-09T00:11:52.258Z,22.1
2022-12-09T00:12:55.254Z,22.2
2022-12-09T00:13:58.431Z,22.1
2022-12-09T00:15:01.463Z,22.3
2022-12-09T00:16:04.147Z,22.2
2022-12-09T00:17:07.653Z,22.1
2022-12-09T00:18:11.112Z,22.2
2022-12-09T00:19:13.902Z,22.4
2022-12-09T00:20:16.445Z,22.3
2022-12-09T00:21:19.021Z,22.3
2022-12-09T00:22:21.891Z,22.2
2022-12-09T00:23:24.772Z,22.3
2022-12-09T00:24:27.273Z,22.3
2022-12-09T00:25:30.234Z,22.2
2022-12-09T00:26:33.013Z,22.4
2022-12-09T00:27:36.202Z,22.1
2022-12-09T00:28:39.057Z,22.2
2022-12-09T00:29:41.575Z,22.2
2022-12-09T00:30:44.382Z,22.5
2022-12-09T00:31:47.393Z,22.3
2022-12-09T00:32:51.162Z,22.4
2022-12-09T00:33:53.792Z,22.2
2022-12-09T00:34:56.814Z,22.4
2022-12-09T00:35:59.389Z,22.3
2022-12-09T00:37:01.969Z,22.3
2022-12-09T00:38:04.856Z,22.3
2022-12-09T00:39:07.655Z,22.3
2022-12-09T00:40:10.639Z,22.5
2022-12-09T00:41:14.300Z,22.5
2022-12-09T00:42:17.083Z,22.4
2022-12-09T00:43:19.901Z,22.3
2022-12-09T00:44:22.464Z,22.4
2022-12-09T00:45:25.190Z,22.4
2022-12-09T00:46:27.704Z,22.5
2022-12-09T00:47:31.046Z,22.5
2022-12-09T00:48:34.222Z,22.4
2022-12-09T00:49:37.309Z,22.4
2022-12-09T00:50:40.170Z,22.3
2022-12-09T00:51:43.103Z,22.4
2022-12-09T00:52:45.868Z,22.3
2022-12-09T00:53:49.089Z,22.3
2022-12-09T00:54:51.627Z,22.4
2022-12-09T00:55:54.638Z,22.5
2022-12-09T00:56:57.083Z,22.4
2022-12-09T00:57:59.803Z,22.5
2022-12-09T00:59:02.601Z,22.5
2022-12-09T01:00:05.747Z,22.6
2022-12-09T01:01:10.536Z,22.6
2022-12-09T01:02:14.196Z,22.4
2022-12-09T01:03:17.858Z,22.6
2022-12-09T01:04:21.529Z,22.5
2022-12-09T01:05:24.762Z,22.5
2022-12-09T01:06:27.744Z,22.6
2022-12-09T01:07:30.574Z,22.6
2022-12-09T01:08:33.859Z,22.6
2022-12-09T01:09:40.763Z,22.5
2022-12-09T01:10:43.346Z,22.6
2022-12-09T01:11:45.644Z,22.6
2022-12-09T01:12:48.077Z,22.5
2022-12-09T01:13:50.564Z,22.6
2022-12-09T01:14:53.551Z,22.4
2022-12-09T01:15:56.488Z,22.4
2022-12-09T01:16:59.329Z,22.5
2022-12-09T01:18:02.806Z,22.5
2022-12-09T01:19:05.864Z,22.5
2022-12-09T01:20:08.758Z,22.5
2022-12-09T01:21:13.952Z,22.6
2022-12-09T01:22:16.867Z,22.5
2022-12-09T01:23:19.558Z,22.6
2022-12-09T01:24:22.250Z,22.5
2022-12-09T01:25:25.162Z,22.6
2022-12-09T01:26:28.604Z,22.6
2022-12-09T01:27:31.185Z,22.7
2022-12-09T01:28:33.597Z,22.6
2022-12-09T01:29:36.700Z,22.7
2022-12-09T01:30:39.602Z,22.6
2022-12-09T01:31:42.793Z,22.7
2022-12-09T01:32:46.908Z,22.6
2022-12-09T01:33:50.058Z,22.6
2022-12-09T01:34:53.141Z,22.7
2022-12-09T01:35:55.877Z,22.7
2022-12-09T01:36:58.652Z,22.6
2022-12-09T01:38:01.690Z,22.8
2022-12-09T01:39:04.833Z,22.7
2022-12-09T01:40:08.358Z,22.6
2022-12-09T01:41:13.389Z,22.4
2022-12-09T01:42:16.037Z,22.5
2022-12-09T01:43:19.157Z,22.6
2022-12-09T01:44:22.059Z,22.4
2022-12-09T01:45:24.939Z,22.6
2022-12-09T01:46:27.708Z,22.7
2022-12-09T01:47:31.380Z,22.7
2022-12-09T01:48:34.985Z,22.5
2022-12-09T01:49:38.507Z,22.6
2022-12-09T01:50:41.504Z,22.5
2022-12-09T01:51:44.027Z,22.7
2022-12-09T01:52:46.795Z,22.6
2022-12-09T01:53:50.178Z,22.7
2022-12-09T01:54:53.609Z,22.7
2022-12-09T01:55:56.339Z,22.9
2022-12-09T01:56:59.215Z,22.7
2022-12-09T01:58:02.193Z,22.8
2022-12-09T01:59:05.209Z,22.7
2022-12-09T02:00:08.198Z,22.7
2022-12-09T02:01:12.069Z,22.6
2022-12-09T02:02:15.454Z,22.7
2022-12-09T02:03:19.705Z,22.7
2022-12-09T02:04:23.963Z,22.6
2022-12-09T02:05:27.619Z,22.8
2022-12-09T02:06:30.965Z,22.7
2022-12-09T02:07:33.885Z,22.6
2022-12-09T02:08:36.504Z,22.7
2022-12-09T02:09:40.150Z,22.7
2022-12-09T02:10:43.382Z,22.7
2022-12-09T02:11:46.221Z,22.7
2022-12-09T02:12:49.243Z,22.7
2022-12-09T02:13:52.048Z,22.7
2022-12-09T02:14:54.494Z,22.7
2022-12-09T02:15:57.360Z,22.7
2022-12-09T02:17:01.225Z,22.7
2022-12-09T02:18:04.724Z,22.8
2022-12-09T02:19:07.573Z,22.8
2022-12-09T02:20:10.916Z,22.7
2022-12-09T02:21:15.585Z,22.9
2022-12-09T02:22:18.180Z,23
2022-12-09T02:23:21.195Z,22.6
2022-12-09T02:24:24.240Z,22.8
2022-12-09T02:25:26.585Z,22.6
2022-12-09T02:26:29.177Z,22.8
2022-12-09T02:27:32.314Z,22.7
2022-12-09T02:28:35.158Z,22.7
2022-12-09T02:29:38.461Z,22.8
2022-12-09T02:30:41.062Z,22.7
2022-12-09T02:31:43.978Z,22.6
2022-12-09T02:32:47.202Z,22.8
2022-12-09T02:33:50.693Z,22.8
2022-12-09T02:34:53.275Z,22.6
2022-12-09T02:35:55.890Z,22.8
2022-12-09T02:36:58.478Z,22.7
2022-12-09T02:38:01.683Z,22.8
2022-12-09T02:39:04.973Z,22.8
2022-12-09T02:40:08.208Z,22.7
2022-12-09T02:41:13.863Z,22.7
2022-12-09T02:42:16.583Z,23
2022-12-09T02:43:19.603Z,22.9
2022-12-09T02:44:23.034Z,22.9
2022-12-09T02:45:26.293Z,22.7
2022-12-09T02:46:29.319Z,22.9
2022-12-09T02:47:32.288Z,22.7
2022-12-09T02:48:36.695Z,22.8
2022-12-09T02:49:40.761Z,22.9
2022-12-09T02:50:43.789Z,22.6
2022-12-09T02:51:46.280Z,22.6
2022-12-09T02:52:49.060Z,22.8
2022-12-09T02:53:51.733Z,22.7
2022-12-09T02:54:54.769Z,22.7
2022-12-09T02:55:57.784Z,22.8
2022-12-09T02:57:00.807Z,22.7
2022-12-09T02:58:03.258Z,22.8
2022-12-09T02:59:06.384Z,22.7
2022-12-09T03:00:09.986Z,22.8
2022-12-09T03:01:15.477Z,22.8
2022-12-09T03:02:18.933Z,22.8
2022-12-09T03:03:22.985Z,22.8
2022-12-09T03:04:26.416Z,22.9
2022-12-09T03:05:29.399Z,22.9
2022-12-09T03:06:32.099Z,22.9
2022-12-09T03:07:34.813Z,22.9
2022-12-09T03:08:37.991Z,22.8
2022-12-09T03:09:42.366Z,22.8
2022-12-09T03:10:45.715Z,22.8
2022-12-09T03:11:48.713Z,22.9
2022-12-09T03:12:52.065Z,22.8
2022-12-09T03:13:55.065Z,22.8
2022-12-09T03:14:57.941Z,22.7
2022-12-09T03:16:01.025Z,23
2022-12-09T03:17:05.369Z,22.8
2022-12-09T03:18:09.550Z,22.7
2022-12-09T03:19:13.360Z,22.7
2022-12-09T03:20:16.658Z,22.7
2022-12-09T03:21:19.471Z,22.8
2022-12-09T03:22:22.522Z,22.7
2022-12-09T03:23:25.716Z,22.8
2022-12-09T03:24:28.107Z,22.7
2022-12-09T03:25:31.462Z,22.8
2022-12-09T03:26:34.544Z,22.9
2022-12-09T03:27:37.230Z,22.9
2022-12-09T03:28:40.159Z,22.8
2022-12-09T03:29:43.917Z,22.9
2022-12-09T03:30:46.741Z,22.8
2022-12-09T03:31:50.028Z,22.9
2022-12-09T03:32:54.086Z,22.9
2022-12-09T03:33:58.078Z,22.8
2022-12-09T03:35:01.261Z,22.9
2022-12-09T03:36:04.826Z,22.9
2022-12-09T03:37:08.245Z,22.9
2022-12-09T03:38:11.436Z,22.8
2022-12-09T03:39:13.708Z,22.9
2022-12-09T03:40:17.457Z,22.9
2022-12-09T03:41:23.637Z,22.7
2022-12-09T03:42:27.258Z,22.9
2022-12-09T03:43:30.404Z,22.8
2022-12-09T03:44:33.691Z,22.8
2022-12-09T03:45:37.123Z,22.8
2022-12-09T03:46:41.030Z,22.8
2022-12-09T03:47:45.258Z,22.8
2022-12-09T03:48:48.889Z,22.6
2022-12-09T03:49:51.971Z,22.8
2022-12-09T03:50:54.741Z,22.8
2022-12-09T03:51:57.996Z,22.7
2022-12-09T03:53:00.838Z,22.7
2022-12-09T03:54:04.365Z,22.7
2022-12-09T03:55:07.586Z,22.7
2022-12-09T03:56:10.930Z,22.8
2022-12-09T03:57:18.408Z,22.8
2022-12-09T03:58:19.223Z,22.9
2022-12-09T03:59:22.558Z,22.9
2022-12-09T04:00:25.839Z,22.8
2022-12-09T04:01:28.814Z,22.6
2022-12-09T04:02:33.053Z,22.9
2022-12-09T04:03:37.017Z,22.9
2022-12-09T04:04:41.491Z,22.8
2022-12-09T04:05:45.752Z,22.8
2022-12-09T04:06:48.171Z,22.9
2022-12-09T04:07:51.092Z,22.9
2022-12-09T04:08:58.066Z,22.8
2022-12-09T04:09:59.688Z,22.7
2022-12-09T04:11:03.030Z,22.6
2022-12-09T04:12:06.282Z,22.6
2022-12-09T04:13:09.136Z,22.7
2022-12-09T04:14:15.717Z,22.7
2022-12-09T04:15:17.548Z,22.7
2022-12-09T04:16:20.888Z,22.7
2022-12-09T04:17:24.390Z,22.7
2022-12-09T04:18:28.035Z,22.7
2022-12-09T04:19:32.005Z,22.7
2022-12-09T04:20:34.639Z,22.6
2022-12-09T04:21:37.927Z,22.8
2022-12-09T04:22:40.997Z,22.6
2022-12-09T04:23:44.183Z,22.7
2022-12-09T04:24:47.424Z,22.7
2022-12-09T04:25:50.483Z,22.7
2022-12-09T04:26:53.287Z,22.6
2022-12-09T04:27:56.325Z,22.7
2022-12-09T04:28:59.652Z,22.6
2022-12-09T04:30:03.517Z,22.5
2022-12-09T04:31:09.529Z,22.5
2022-12-09T04:32:13.506Z,22.6
2022-12-09T04:33:17.215Z,22.6
2022-12-09T04:34:20.228Z,22.4
2022-12-09T04:35:23.294Z,22.4
2022-12-09T04:36:26.336Z,22.6
2022-12-09T04:37:29.546Z,22.6
2022-12-09T04:38:32.753Z,22.6
2022-12-09T04:39:36.098Z,22.5
2022-12-09T04:40:39.195Z,22.4
2022-12-09T04:41:42.094Z,22.6
2022-12-09T04:42:44.786Z,22.5
2022-12-09T04:43:48.159Z,22.6
2022-12-09T04:44:50.844Z,22.6
2022-12-09T04:45:53.772Z,22.7
2022-12-09T04:46:57.270Z,22.6
2022-12-09T04:48:00.547Z,22.5
2022-12-09T04:49:04.672Z,22.6
2022-12-09T04:50:08.370Z,22.6
2022-12-09T04:51:14.308Z,22.6
2022-12-09T04:52:17.887Z,22.5
2022-12-09T04:53:21.122Z,22.6
2022-12-09T04:54:24.896Z,22.5
2022-12-09T04:55:27.732Z,22.5
2022-12-09T04:56:30.093Z,22.5
2022-12-09T04:57:33.199Z,22.6
2022-12-09T04:58:36.650Z,22.4
2022-12-09T04:59:39.015Z,22.5
2022-12-09T05:00:41.997Z,22.5
2022-12-09T05:01:45.069Z,22.6
2022-12-09T05:02:49.113Z,22.5
2022-12-09T05:03:53.200Z,22.6
2022-12-09T05:04:57.008Z,22.5
2022-12-09T05:06:01.343Z,22.5
2022-12-09T05:07:05.632Z,22.4
2022-12-09T05:08:09.240Z,22.6
2022-12-09T05:09:14.389Z,22.4
2022-12-09T05:10:18.269Z,22.6
2022-12-09T05:11:22.401Z,22.4
2022-12-09T05:12:26.403Z,22.6
2022-12-09T05:13:29.231Z,22.3
2022-12-09T05:14:32.371Z,22.4
2022-12-09T05:15:35.542Z,22.4
2022-12-09T05:16:38.811Z,22.4
2022-12-09T05:17:43.229Z,22.4
2022-12-09T05:18:48.041Z,22.5
2022-12-09T05:19:52.545Z,22.5
2022-12-09T05:20:55.558Z,22.5
2022-12-09T05:21:58.737Z,22.5
2022-12-09T05:23:05.746Z,22.5
2022-12-09T05:24:06.970Z,22.5
2022-12-09T05:25:10.272Z,22.3
2022-12-09T05:26:13.200Z,22.5
2022-12-09T05:27:16.758Z,22.3
2022-12-09T05:28:20.094Z,22.6
2022-12-09T05:29:23.686Z,22.5
2022-12-09T05:30:26.646Z,22.5
2022-12-09T05:31:29.865Z,22.2
2022-12-09T05:32:33.543Z,22.3
2022-12-09T05:33:37.176Z,22.2
2022-12-09T05:34:41.938Z,22.5
2022-12-09T05:35:52.547Z,22.5
2022-12-09T05:36:50.763Z,22.4
2022-12-09T05:37:53.781Z,22.4
2022-12-09T05:38:56.744Z,22.4
2022-12-09T05:39:59.899Z,22.2
2022-12-09T05:41:03.406Z,22.3
2022-12-09T05:42:06.610Z,22.3
2022-12-09T05:43:09.379Z,22.3
2022-12-09T05:44:12.324Z,22.3
2022-12-09T05:45:15.582Z,22.5
2022-12-09T05:46:19.143Z,22.2
2022-12-09T05:47:23.441Z,22.2
2022-12-09T05:48:27.187Z,22.4
2022-12-09T05:49:31.285Z,22.3
2022-12-09T05:50:35.480Z,22.4
2022-12-09T05:51:38.506Z,22.2
2022-12-09T05:52:41.471Z,22.2
2022-12-09T05:53:44.472Z,22.3
2022-12-09T05:54:48.471Z,22.2
2022-12-09T05:55:51.857Z,22.3
2022-12-09T05:56:55.951Z,22.2
2022-12-09T05:57:59.674Z,22.5
2022-12-09T05:59:03.142Z,22.4
2022-12-09T06:00:06.922Z,22.3
2022-12-09T06:01:12.545Z,22.2
2022-12-09T06:02:16.179Z,22.3
2022-12-09T06:03:19.861Z,22.3
2022-12-09T06:04:24.368Z,22.2
2022-12-09T06:05:28.501Z,22.1
2022-12-09T06:06:33.520Z,22.1
2022-12-09T06:07:37.594Z,22.3
2022-12-09T06:08:42.772Z,22.2
2022-12-09T06:09:46.575Z,22.4
2022-12-09T06:10:50.260Z,22.3
2022-12-09T06:11:53.643Z,22.2
2022-12-09T06:12:56.622Z,22.2
2022-12-09T06:13:59.582Z,22.2
2022-12-09T06:15:02.918Z,22.3
2022-12-09T06:16:09.833Z,22.2
2022-12-09T06:17:14.261Z,22.2
2022-12-09T06:18:18.043Z,22.2
2022-12-09T06:19:21.055Z,22.3
2022-12-09T06:20:24.624Z,22.2
2022-12-09T06:21:27.964Z,22.3
2022-12-09T06:22:31.536Z,22.2
2022-12-09T06:23:34.450Z,22.3
2022-12-09T06:24:38.298Z,22.2
2022-12-09T06:25:41.166Z,22.3
2022-12-09T06:26:44.295Z,22.3
2022-12-09T06:27:47.378Z,22.3
2022-12-09T06:28:50.396Z,22.2
2022-12-09T06:29:53.566Z,22.3
2022-12-09T06:30:56.724Z,22.2
2022-12-09T06:32:01.091Z,22.1
2022-12-09T06:33:17.405Z,22.1
2022-12-09T06:34:09.821Z,22.2
2022-12-09T06:35:13.612Z,22.1
2022-12-09T06:36:19.613Z,22.3
2022-12-09T06:37:22.970Z,22.2
2022-12-09T06:38:26.054Z,22.2
2022-12-09T06:39:29.154Z,22.2
2022-12-09T06:40:32.306Z,22.3
2022-12-09T06:41:35.313Z,22.1
2022-12-09T06:42:38.979Z,22.2
2022-12-09T06:43:42.066Z,22.2
2022-12-09T06:44:45.460Z,22.2
2022-12-09T06:45:48.540Z,22.2
2022-12-09T06:46:51.383Z,22.2
2022-12-09T06:47:55.713Z,22.2
2022-12-09T06:48:59.625Z,22.1
2022-12-09T06:50:06.868Z,22.2
2022-12-09T06:51:08.329Z,22.2
2022-12-09T06:52:12.336Z,22.1
2022-12-09T06:53:15.424Z,22.2
2022-12-09T06:54:18.128Z,22.1
2022-12-09T06:55:21.555Z,22.1
2022-12-09T06:56:24.692Z,22.3
2022-12-09T06:57:28.686Z,22.2
2022-12-09T06:58:32.144Z,22.3
2022-12-09T06:59:35.227Z,22.2
2022-12-09T07:00:38.453Z,22.1
2022-12-09T07:01:42.372Z,22.1
2022-12-09T07:02:47.718Z,22.2
2022-12-09T07:03:52.354Z,22
2022-12-09T07:04:58.280Z,22.1
2022-12-09T07:06:02.783Z,22.3
2022-12-09T07:07:07.243Z,22.2
2022-12-09T07:08:11.251Z,22.2
2022-12-09T07:09:15.699Z,22.1
2022-12-09T07:10:20.854Z,22.2
2022-12-09T07:11:24.730Z,22.3
2022-12-09T07:12:28.629Z,22.1
2022-12-09T07:13:31.925Z,22.2
2022-12-09T07:14:35.124Z,22.2
2022-12-09T07:15:38.171Z,22.2
2022-12-09T07:16:40.936Z,22.2
2022-12-09T07:17:45.345Z,22.2
2022-12-09T07:18:49.520Z,22.1
2022-12-09T07:19:53.530Z,22.2
2022-12-09T07:21:02.785Z,22.2
2022-12-09T07:22:05.603Z,22.1
2022-12-09T07:23:08.822Z,22.3
2022-12-09T07:24:12.053Z,22.3
2022-12-09T07:25:15.442Z,22.1
2022-12-09T07:26:19.460Z,22.2
2022-12-09T07:27:22.832Z,22.2
2022-12-09T07:28:25.718Z,22
2022-12-09T07:29:28.916Z,22.1
2022-12-09T07:30:32.119Z,22.2
2022-12-09T07:31:35.487Z,22.1
2022-12-09T07:32:40.010Z,22.1
2022-12-09T07:33:43.818Z,22.1
2022-12-09T07:34:47.901Z,22.3
2022-12-09T07:35:52.049Z,22
2022-12-09T07:36:55.414Z,22
2022-12-09T07:37:58.640Z,22.2
2022-12-09T07:39:01.728Z,22.2
2022-12-09T07:40:05.447Z,22.2
2022-12-09T07:41:08.867Z,22.2
2022-12-09T07:42:11.949Z,22.2
2022-12-09T07:43:15.053Z,22.2
2022-12-09T07:44:18.073Z,22.2
2022-12-09T07:45:21.514Z,22.1
2022-12-09T07:46:25.126Z,22.3
2022-12-09T07:47:29.559Z,22.2
2022-12-09T07:48:33.539Z,22.4
2022-12-09T07:49:37.652Z,22.2
2022-12-09T07:50:42.154Z,22.2
2022-12-09T07:51:45.207Z,22.3
2022-12-09T07:52:48.636Z,22
2022-12-09T07:53:51.598Z,22.1
2022-12-09T07:54:56.394Z,22.2
2022-12-09T07:55:59.196Z,22.2
2022-12-09T07:57:02.338Z,22.2
2022-12-09T07:58:05.723Z,22.2
2022-12-09T07:59:09.058Z,22.1
2022-12-09T08:00:12.324Z,22
2022-12-09T08:01:15.459Z,22.3
2022-12-09T08:02:18.981Z,22.1
2022-12-09T08:03:22.431Z,22.2
2022-12-09T08:04:26.358Z,22.1
2022-12-09T08:05:31.033Z,22.1
2022-12-09T08:06:35.150Z,22.1
2022-12-09T08:07:44.036Z,22.1
2022-12-09T08:08:45.548Z,22
2022-12-09T08:09:50.453Z,22.2
2022-12-09T08:10:54.922Z,22.2
2022-12-09T08:11:59.449Z,22.2
2022-12-09T08:13:03.823Z,22.2
2022-12-09T08:14:11.233Z,22.2
2022-12-09T08:15:11.894Z,22.1
2022-12-09T08:16:17.824Z,22.1
2022-12-09T08:17:23.944Z,22.1
2022-12-09T08:18:27.522Z,22.2
2022-12-09T08:19:32.167Z,22.1
2022-12-09T08:20:36.297Z,22.1
2022-12-09T08:21:39.766Z,22.1
2022-12-09T08:22:44.082Z,22
2022-12-09T08:23:47.405Z,22
2022-12-09T08:24:51.569Z,22.2
2022-12-09T08:25:55.338Z,22.1
2022-12-09T08:26:58.860Z,21.9
2022-12-09T08:28:02.941Z,22.2
2022-12-09T08:29:07.299Z,21.9
2022-12-09T08:30:12.468Z,22.1
2022-12-09T08:31:19.509Z,22.2
2022-12-09T08:32:25.056Z,22
2022-12-09T08:33:29.394Z,22.1
2022-12-09T08:34:33.514Z,22.1
2022-12-09T08:35:38.009Z,22.2
2022-12-09T08:36:41.105Z,22.1
2022-12-09T08:37:45.217Z,22.3
2022-12-09T08:38:48.211Z,22.2
2022-12-09T08:39:51.476Z,22.2
2022-12-09T08:40:54.748Z,22.1
2022-12-09T08:41:57.747Z,22.1
2022-12-09T08:43:01.185Z,22.2
2022-12-09T08:44:04.304Z,22.2
2022-12-09T08:45:07.910Z,22.2
2022-12-09T08:46:11.547Z,22.1
2022-12-09T08:47:16.370Z,22
2022-12-09T08:48:20.558Z,22.2
2022-12-09T08:49:24.625Z,22.2
2022-12-09T08:50:29.054Z,22.1
2022-12-09T08:51:31.974Z,22.1
2022-12-09T08:52:40.172Z,22.2
2022-12-09T08:53:40.744Z,22.2
2022-12-09T08:54:44.359Z,22.2
2022-12-09T08:55:47.641Z,22.2
2022-12-09T08:56:50.775Z,22.1
2022-12-09T08:57:54.096Z,22.1
2022-12-09T08:58:57.204Z,22.1
2022-12-09T09:00:01.291Z,22.1
2022-12-09T09:01:05.899Z,22.2
2022-12-09T09:02:10.050Z,22
2022-12-09T09:03:13.941Z,22.1
2022-12-09T09:04:18.224Z,22.3
2022-12-09T09:05:23.847Z,22.1
2022-12-09T09:06:29.132Z,22.2
2022-12-09T09:07:34.008Z,22.1
2022-12-09T09:08:38.182Z,22.2
2022-12-09T09:09:42.138Z,22.1
2022-12-09T09:10:46.023Z,22.1
2022-12-09T09:11:50.225Z,22.1
2022-12-09T09:12:53.661Z,22.2
2022-12-09T09:13:56.876Z,22.2
2022-12-09T09:15:00.786Z,22.2
2022-12-09T09:16:04.747Z,22.1
2022-12-09T09:17:09.471Z,22.2
2022-12-09T09:18:13.411Z,22.1
2022-12-09T09:19:17.547Z,22.2
2022-12-09T09:20:22.475Z,21.9
2022-12-09T09:21:26.197Z,22.1
2022-12-09T09:22:29.878Z,22.2
2022-12-09T09:23:33.323Z,22.1
2022-12-09T09:24:37.077Z,22.1
2022-12-09T09:25:40.838Z,22
2022-12-09T09:26:45.637Z,22.1
2022-12-09T09:27:49.141Z,22.2
2022-12-09T09:28:52.390Z,21.8
2022-12-09T09:29:55.656Z,22.3
2022-12-09T09:30:58.958Z,21.9
2022-12-09T09:32:03.111Z,22.1
2022-12-09T09:33:07.658Z,22
2022-12-09T09:34:12.325Z,22.1
2022-12-09T09:35:16.412Z,22
2022-12-09T09:36:20.976Z,22.2
2022-12-09T09:37:25.858Z,22.2
2022-12-09T09:38:29.480Z,22
2022-12-09T09:39:32.868Z,22.2
2022-12-09T09:40:36.209Z,22
2022-12-09T09:41:39.510Z,22
2022-12-09T09:42:43.432Z,22.2
2022-12-09T09:43:46.488Z,21.9
2022-12-09T09:44:50.067Z,22
2022-12-09T09:45:53.688Z,22
2022-12-09T09:46:57.911Z,22.1
2022-12-09T09:48:02.909Z,22.2
2022-12-09T09:49:07.679Z,22.1
2022-12-09T09:50:12.402Z,22
2022-12-09T09:51:18.529Z,22.2
2022-12-09T09:52:21.864Z,22.1
2022-12-09T09:53:25.377Z,22.2
2022-12-09T09:54:29.252Z,22
2022-12-09T09:55:32.396Z,21.9
2022-12-09T09:56:36.070Z,22
2022-12-09T09:57:39.770Z,22
2022-12-09T09:58:42.878Z,22.1
2022-12-09T09:59:46.816Z,22.1
2022-12-09T10:00:50.826Z,21.9
2022-12-09T10:01:54.589Z,22.2
2022-12-09T10:03:00.696Z,22.1
2022-12-09T10:04:06.936Z,22
2022-12-09T10:05:13.274Z,22.1
2022-12-09T10:06:18.697Z,21.9
2022-12-09T10:07:23.989Z,22.1
2022-12-09T10:08:28.986Z,21.9
2022-12-09T10:09:34.507Z,22
2022-12-09T10:10:39.257Z,22.1
2022-12-09T10:11:44.279Z,22
2022-12-09T10:12:50.622Z,22.1
2022-12-09T10:13:57.604Z,22.1
2022-12-09T10:15:02.545Z,22
2022-12-09T10:16:07.285Z,21.9
2022-12-09T10:17:12.576Z,22.1
2022-12-09T10:18:16.840Z,22.1
2022-12-09T10:19:20.909Z,22
2022-12-09T10:20:25.561Z,22
2022-12-09T10:21:30.807Z,22.2
2022-12-09T10:22:34.471Z,22
2022-12-09T10:23:38.625Z,22
2022-12-09T10:24:43.050Z,22
2022-12-09T10:25:46.489Z,21.9
2022-12-09T10:26:50.818Z,22.2
2022-12-09T10:27:53.959Z,21.9
2022-12-09T10:28:57.385Z,21.8
2022-12-09T10:30:00.849Z,21.9
2022-12-09T10:31:05.583Z,22
2022-12-09T10:32:10.499Z,22
2022-12-09T10:33:14.863Z,21.8
2022-12-09T10:34:19.450Z,22.1
2022-12-09T10:35:23.910Z,22.1
2022-12-09T10:36:32.318Z,22
2022-12-09T10:37:33.342Z,22
2022-12-09T10:38:37.653Z,21.9
2022-12-09T10:39:41.343Z,22
2022-12-09T10:40:44.695Z,22
2022-12-09T10:41:48.880Z,22
2022-12-09T10:42:51.768Z,22
2022-12-09T10:43:54.954Z,21.9
2022-12-09T10:44:58.666Z,22.1
2022-12-09T10:46:19.145Z,22
2022-12-09T10:47:07.316Z,21.7
2022-12-09T10:48:11.440Z,22
2022-12-09T10:49:15.870Z,22
2022-12-09T10:50:20.252Z,22
2022-12-09T10:51:25.014Z,22.1
2022-12-09T10:52:29.717Z,22
2022-12-09T10:53:33.187Z,21.9
2022-12-09T10:54:37.170Z,21.9
2022-12-09T10:55:41.186Z,21.9
2022-12-09T10:56:45.023Z,22.1
2022-12-09T10:57:48.010Z,21.9
2022-12-09T10:58:52.231Z,22
2022-12-09T10:59:55.383Z,21.9
2022-12-09T11:01:00.566Z,21.9
2022-12-09T11:02:04.597Z,22
2022-12-09T11:03:08.707Z,22.1
2022-12-09T11:04:13.156Z,21.9
2022-12-09T11:05:17.233Z,21.8
2022-12-09T11:06:21.879Z,22
2022-12-09T11:07:27.976Z,22.2
2022-12-09T11:08:32.169Z,22.2
2022-12-09T11:09:37.642Z,22.1
2022-12-09T11:10:42.900Z,21.9
2022-12-09T11:11:47.385Z,21.9
2022-12-09T11:12:51.325Z,22.1
2022-12-09T11:13:54.715Z,22.1
2022-12-09T11:14:58.380Z,21.9
2022-12-09T11:16:02.113Z,22
2022-12-09T11:17:07.182Z,22.1
2022-12-09T11:18:11.128Z,22
2022-12-09T11:19:15.078Z,22.1
2022-12-09T11:20:19.390Z,22
2022-12-09T11:21:25.232Z,21.8
2022-12-09T11:22:29.232Z,22
2022-12-09T11:23:33.618Z,22.1
2022-12-09T11:24:38.618Z,22.2
2022-12-09T11:25:42.585Z,22
2022-12-09T11:26:45.858Z,21.8
2022-12-09T11:27:49.448Z,22
2022-12-09T11:28:53.106Z,22.1
2022-12-09T11:29:56.455Z,22.1
2022-12-09T11:32:04.789Z,21.8
2022-12-09T11:33:08.854Z,22.1
2022-12-09T11:34:13.284Z,22
2022-12-09T11:35:18.013Z,22.1
2022-12-09T11:36:22.175Z,21.9
2022-12-09T11:37:25.442Z,22.2
2022-12-09T11:38:27.655Z,21.9
2022-12-09T11:39:30.153Z,22.1
2022-12-09T11:40:32.393Z,22.1
2022-12-09T11:41:34.363Z,22.1
2022-12-09T11:42:36.611Z,22.1
2022-12-09T11:43:38.871Z,22.2
2022-12-09T11:44:41.445Z,22.1
2022-12-09T11:45:43.921Z,21.9
2022-12-09T11:46:45.871Z,22.1
2022-12-09T11:48:22.865Z,22.1
2022-12-09T11:48:53.404Z,22.3
2022-12-09T11:49:55.629Z,22
2022-12-09T11:50:58.361Z,22.2
2022-12-09T11:51:59.723Z,22.2
2022-12-09T11:53:01.688Z,21.9
2022-12-09T11:54:04.203Z,22.2
2022-12-09T11:55:06.730Z,22.2
2022-12-09T11:56:08.679Z,22.1
2022-12-09T11:57:10.910Z,21.8
2022-12-09T11:58:13.114Z,21.9
2022-12-09T11:59:15.668Z,22.2
2022-12-09T12:00:17.890Z,22.2
2022-12-09T12:01:20.368Z,22.2
2022-12-09T12:02:22.612Z,21.9
2022-12-09T12:03:25.561Z,21.9
2022-12-09T12:04:28.381Z,22.2
2022-12-09T12:05:30.610Z,21.9
2022-12-09T12:06:32.795Z,22.1
2022-12-09T12:07:35.287Z,22
2022-12-09T12:08:37.618Z,22
2022-12-09T12:09:40.627Z,22
2022-12-09T12:10:43.119Z,22.1
2022-12-09T12:11:45.068Z,22.1
2022-12-09T12:12:47.276Z,22
2022-12-09T12:13:49.771Z,22.1
2022-12-09T12:14:52.040Z,22.1
2022-12-09T12:15:54.544Z,21.9
2022-12-09T12:16:56.797Z,22.3
2022-12-09T12:17:59.732Z,21.9
2022-12-09T12:19:02.217Z,22
2022-12-09T12:20:04.757Z,22.1
2022-12-09T12:21:08.619Z,22.1
2022-12-09T12:22:10.837Z,22
2022-12-09T12:23:12.781Z,22.2
2022-12-09T12:24:14.985Z,22
2022-12-09T12:25:18.146Z,22.1
2022-12-09T12:26:22.528Z,22
2022-12-09T12:27:25.042Z,22.1
2022-12-09T12:28:27.537Z,22.1
2022-12-09T12:29:30.015Z,22.1
2022-12-09T12:30:32.661Z,21.7
2022-12-09T12:31:34.914Z,21.9
2022-12-09T12:32:37.467Z,22.2
2022-12-09T12:34:44.685Z,22.2
2022-12-09T12:35:47.173Z,22.3
2022-12-09T12:36:49.426Z,22
2022-12-09T12:37:51.640Z,21.9
2022-12-09T12:38:53.852Z,22.3
2022-12-09T12:39:56.070Z,22
2022-12-09T12:40:58.305Z,22
2022-12-09T12:42:00.797Z,22.1
2022-12-09T12:43:03.359Z,22.1
2022-12-09T12:44:05.567Z,22.1
2022-12-09T12:45:08.085Z,22.3
2022-12-09T12:46:10.751Z,22.1
2022-12-09T12:47:13.476Z,22
2022-12-09T12:48:15.996Z,22.1
2022-12-09T12:49:18.167Z,22
2022-12-09T12:50:20.182Z,22.1
2022-12-09T12:51:22.408Z,22
2022-12-09T12:52:55.353Z,22.1
2022-12-09T12:53:30.045Z,22.3
2022-12-09T12:54:32.011Z,22.2
2022-12-09T12:55:34.489Z,22.1
2022-12-09T12:56:36.696Z,21.9
2022-12-09T12:57:38.915Z,21.9
2022-12-09T12:58:41.159Z,21.9
2022-12-09T12:59:43.739Z,22.1
2022-12-09T13:00:45.722Z,22.1
2022-12-09T13:01:48.743Z,22.1
2022-12-09T13:02:55.507Z,22
2022-12-09T13:03:56.059Z,21.8
2022-12-09T13:04:58.002Z,22.1
2022-12-09T13:06:00.482Z,22
2022-12-09T13:07:02.976Z,22
2022-12-09T13:08:04.999Z,22.3
2022-12-09T13:09:07.918Z,22.1
2022-12-09T13:10:10.328Z,22.3
2022-12-09T13:11:12.861Z,22
2022-12-09T13:12:15.109Z,22.2
2022-12-09T13:13:17.591Z,21.7
2022-12-09T13:14:19.801Z,22
2022-12-09T13:15:22.006Z,22
2022-12-09T13:16:24.214Z,22.1
2022-12-09T13:17:27.347Z,22
2022-12-09T13:18:29.859Z,22.1
2022-12-09T13:19:31.773Z,21.9
2022-12-09T13:20:33.721Z,22
2022-12-09T13:21:35.961Z,21.9
2022-12-09T13:22:37.913Z,21.9
2022-12-09T13:23:40.132Z,21.9
2022-12-09T13:24:42.070Z,22.2
2022-12-09T13:25:44.024Z,22.1
2022-12-09T13:26:46.576Z,22.1
2022-12-09T13:27:48.765Z,22
2022-12-09T13:28:50.711Z,22
2022-12-09T13:29:53.242Z,22.1
2022-12-09T13:30:55.804Z,22.2
2022-12-09T13:31:58.420Z,22.1
2022-12-09T13:33:00.990Z,21.9
2022-12-09T13:34:03.231Z,22
2022-12-09T13:35:05.477Z,22
2022-12-09T13:36:07.978Z,21.9
2022-12-09T13:37:10.216Z,21.8
2022-12-09T13:38:12.176Z,22.2
2022-12-09T13:39:14.694Z,22.2
2022-12-09T13:40:17.224Z,21.8
2022-12-09T13:41:18.886Z,22.2
2022-12-09T13:42:21.125Z,21.9
2022-12-09T13:43:23.627Z,21.7
2022-12-09T13:44:25.840Z,21.8
2022-12-09T13:45:28.187Z,21.9
2022-12-09T13:46:30.464Z,22
2022-12-09T13:47:33.251Z,21.9
2022-12-09T13:48:35.696Z,21.9
2022-12-09T13:49:37.721Z,22
2022-12-09T13:50:39.676Z,22
2022-12-09T13:51:41.308Z,21.8
2022-12-09T13:52:43.262Z,22
2022-12-09T13:53:46.109Z,22
2022-12-09T13:54:48.848Z,21.9
2022-12-09T13:55:51.353Z,21.8
2022-12-09T13:56:53.847Z,22
2022-12-09T13:57:56.062Z,22.1
2022-12-09T13:58:58.401Z,21.9
2022-12-09T14:00:00.980Z,22
2022-12-09T14:01:04.766Z,21.9
2022-12-09T14:02:07.217Z,21.9
2022-12-09T14:03:09.526Z,22
2022-12-09T14:04:12.600Z,22
2022-12-09T14:05:15.125Z,21.9
2022-12-09T14:06:17.668Z,21.8
2022-12-09T14:07:19.906Z,22
2022-12-09T14:08:22.479Z,21.8
2022-12-09T14:09:24.529Z,21.9
2022-12-09T14:10:26.770Z,22.1
2022-12-09T14:11:28.745Z,21.9
2022-12-09T14:12:30.956Z,22.2
2022-12-09T14:13:33.453Z,22